createdAt,value
2022-09-12T00:00:52.598Z,97972.47
2022-09-12T00:03:19.100Z,97971.50
2022-09-12T00:05:47.110Z,97975.28
2022-09-12T00:08:14.516Z,97977.63
2022-09-12T00:10:42.909Z,97951.00
2022-09-12T00:13:10.492Z,97966.06
2022-09-12T00:15:41.523Z,97969.69
2022-09-12T00:18:10.472Z,97963.22
2022-09-12T00:20:42.402Z,97961.25
2022-09-12T00:23:08.920Z,97964.38
2022-09-12T00:25:40.600Z,97948.53
2022-09-12T00:28:07.052Z,97963.41
2022-09-12T00:30:34.322Z,97943.88
2022-09-12T00:33:00.803Z,97943.09
2022-09-12T00:35:27.249Z,97944.56
2022-09-12T00:37:53.678Z,97970.00
2022-09-12T00:40:20.191Z,97977.94
2022-09-12T00:42:46.639Z,97973.97
2022-09-12T00:45:24.370Z,97967.03
2022-09-12T00:47:50.868Z,97950.81
2022-09-12T00:50:18.050Z,97962.06
2022-09-12T00:52:49.723Z,97950.81
2022-09-12T00:55:40.351Z,97949.50
2022-09-12T00:58:13.631Z,97938.94
2022-09-12T01:00:40.319Z,97949.50
2022-09-12T01:03:14.754Z,97949.50
2022-09-12T01:05:47.155Z,97952.94
2022-09-12T01:08:13.564Z,97927.63
2022-09-12T01:10:42.491Z,97930.94
2022-09-12T01:13:10.333Z,97933.75
2022-09-12T01:15:39.877Z,97940.53
2022-09-12T01:18:25.097Z,97944.31
2022-09-12T01:21:15.241Z,97927.00
2022-09-12T01:24:26.218Z,97932.47
2022-09-12T01:27:19.217Z,97929.84
2022-09-12T01:30:01.671Z,97917.09
2022-09-12T01:33:06.337Z,97909.84
2022-09-12T01:35:44.988Z,97915.94
2022-09-12T01:38:43.571Z,97923.41
2022-09-12T01:41:41.084Z,97920.06
2022-09-12T01:44:19.033Z,97916.13
2022-09-12T01:47:16.553Z,97920.59
2022-09-12T01:49:50.064Z,97918.13
2022-09-12T01:52:37.687Z,97887.38
2022-09-12T01:55:13.540Z,97901.75
2022-09-12T01:57:48.240Z,97900.91
2022-09-12T02:00:15.055Z,97910.19
2022-09-12T02:02:50.681Z,97906.22
2022-09-12T02:05:39.776Z,97885.06
2022-09-12T02:08:20.194Z,97905.56
2022-09-12T02:10:52.423Z,97898.47
2022-09-12T02:13:25.832Z,97894.94
2022-09-12T02:15:59.089Z,97911.41
2022-09-12T02:18:27.822Z,97893.75
2022-09-12T02:20:56.595Z,97907.47
2022-09-12T02:23:27.574Z,97917.06
2022-09-12T02:26:06.399Z,97904.97
2022-09-12T02:28:38.004Z,97918.84
2022-09-12T02:31:18.923Z,97920.66
2022-09-12T02:34:02.048Z,97920.31
2022-09-12T02:36:50.881Z,97930.25
2022-09-12T02:39:20.073Z,97916.69
2022-09-12T02:41:55.750Z,97931.13
2022-09-12T02:44:25.267Z,97934.81
2022-09-12T02:46:57.313Z,97945.34
2022-09-12T02:49:24.809Z,97939.28
2022-09-12T02:51:51.260Z,97917.78
2022-09-12T02:54:19.140Z,97918.59
2022-09-12T02:56:46.148Z,97933.28
2022-09-12T02:59:18.190Z,97923.19
2022-09-12T03:02:00.057Z,97932.28
2022-09-12T03:05:10.954Z,97926.75
2022-09-12T03:08:12.900Z,97929.50
2022-09-12T03:11:25.795Z,97924.72
2022-09-12T03:14:20.285Z,97921.75
2022-09-12T03:16:58.019Z,97920.25
2022-09-12T03:19:35.337Z,97801.25
2022-09-12T03:22:21.569Z,97793.66
2022-09-12T03:24:58.344Z,97691.50
2022-09-12T03:27:31.284Z,97654.22
2022-09-12T03:29:58.097Z,97618.59
2022-09-12T03:32:51.005Z,97614.94
2022-09-12T03:35:23.028Z,97569.63
2022-09-12T03:37:51.012Z,97522.91
2022-09-12T03:40:17.780Z,97504.28
2022-09-12T03:42:44.141Z,97496.53
2022-09-12T03:45:10.994Z,97464.81
2022-09-12T03:47:37.525Z,97452.53
2022-09-12T03:50:04.679Z,97443.69
2022-09-12T03:52:31.075Z,97443.63
2022-09-12T03:54:57.505Z,97433.13
2022-09-12T03:57:23.898Z,97421.91
2022-09-12T03:59:50.737Z,97419.75
2022-09-12T04:02:17.776Z,97413.28
2022-09-12T04:04:44.827Z,97409.75
2022-09-12T04:07:11.610Z,97413.97
2022-09-12T04:09:38.201Z,97383.75
2022-09-12T04:12:05.069Z,97385.38
2022-09-12T04:14:31.459Z,97370.63
2022-09-12T04:16:57.973Z,97349.13
2022-09-12T04:19:25.827Z,97366.53
2022-09-12T04:21:52.239Z,97359.78
2022-09-12T04:24:18.666Z,97343.38
2022-09-12T04:26:45.045Z,97363.44
2022-09-12T04:29:15.191Z,97358.75
2022-09-12T04:31:41.967Z,97356.59
2022-09-12T04:34:08.773Z,97362.09
2022-09-12T04:36:35.647Z,97370.78
2022-09-12T04:39:03.987Z,97375.38
2022-09-12T04:41:33.427Z,97375.03
2022-09-12T04:44:04.006Z,97367.16
2022-09-12T04:46:33.474Z,97351.41
2022-09-12T04:48:59.885Z,97358.13
2022-09-12T04:51:35.704Z,97365.25
2022-09-12T04:54:07.266Z,97372.03
2022-09-12T04:56:43.371Z,97366.75
2022-09-12T04:59:11.655Z,97359.03
2022-09-12T05:01:38.450Z,97337.28
2022-09-12T05:04:05.091Z,97339.84
2022-09-12T05:06:34.983Z,97332.25
2022-09-12T05:09:02.829Z,97305.53
2022-09-12T05:11:53.005Z,97320.59
2022-09-12T05:14:19.029Z,97321.84
2022-09-12T05:16:49.191Z,97315.59
2022-09-12T05:19:16.539Z,97268.97
2022-09-12T05:21:42.901Z,97255.28
2022-09-12T05:24:11.395Z,97266.03
2022-09-12T05:26:37.840Z,97249.94
2022-09-12T05:29:04.746Z,97252.53
2022-09-12T05:31:31.145Z,97212.03
2022-09-12T05:33:57.718Z,96609.94
2022-09-12T05:36:26.713Z,96633.59
2022-09-12T05:38:53.930Z,96612.56
2022-09-12T05:41:25.103Z,96598.34
2022-09-12T05:43:56.350Z,96589.06
2022-09-12T05:46:25.771Z,96794.50
2022-09-12T05:48:56.381Z,96762.22
2022-09-12T05:51:28.622Z,96745.16
2022-09-12T05:53:57.370Z,96737.81
2022-09-12T05:56:26.000Z,96743.09
2022-09-12T05:58:55.837Z,96730.16
2022-09-12T06:01:22.630Z,96709.94
2022-09-12T06:03:51.677Z,96714.94
2022-09-12T06:06:21.584Z,96687.53
2022-09-12T06:08:51.222Z,96680.84
2022-09-12T06:11:20.870Z,96662.84
2022-09-12T06:13:47.454Z,96665.00
2022-09-12T06:16:19.061Z,96656.94
2022-09-12T06:18:53.862Z,96646.19
2022-09-12T06:21:21.214Z,96650.63
2022-09-12T06:23:48.752Z,96649.69
2022-09-12T06:26:17.697Z,96631.91
2022-09-12T06:28:45.028Z,96629.06
2022-09-12T06:31:14.996Z,96603.84
2022-09-12T06:33:43.783Z,96610.13
2022-09-12T06:36:13.680Z,96629.56
2022-09-12T06:38:40.560Z,96580.78
2022-09-12T06:41:10.161Z,96620.13
2022-09-12T06:43:37.025Z,96612.88
2022-09-12T06:46:04.370Z,96620.44
2022-09-12T06:48:30.987Z,96610.66
2022-09-12T06:51:02.670Z,96600.50
2022-09-12T06:53:32.344Z,96631.88
2022-09-12T06:56:04.680Z,96661.00
2022-09-12T06:58:31.595Z,96695.00
2022-09-12T07:01:05.449Z,96697.22
2022-09-12T07:03:33.006Z,96689.91
2022-09-12T07:06:08.088Z,96701.78
2022-09-12T07:08:35.447Z,96723.59
2022-09-12T07:11:28.472Z,96722.56
2022-09-12T07:13:56.503Z,96698.47
2022-09-12T07:16:23.678Z,96696.28
2022-09-12T07:18:52.300Z,96720.31
2022-09-12T07:21:19.243Z,96821.47
2022-09-12T07:23:45.916Z,96960.63
2022-09-12T07:26:13.936Z,97085.97
2022-09-12T07:28:41.178Z,97227.34
2022-09-12T07:31:12.744Z,97355.19
2022-09-12T07:33:41.080Z,97432.81
2022-09-12T07:36:11.618Z,97442.06
2022-09-12T07:38:38.817Z,97588.28
2022-09-12T07:41:23.829Z,97647.38
2022-09-12T07:43:54.883Z,97764.69
2022-09-12T07:46:23.853Z,97853.75
2022-09-12T07:48:51.613Z,97934.59
2022-09-12T07:51:18.995Z,97930.16
2022-09-12T07:53:46.669Z,98011.50
2022-09-12T07:56:13.571Z,98141.44
2022-09-12T07:58:41.900Z,98237.69
2022-09-12T08:01:13.895Z,98327.44
2022-09-12T08:03:41.921Z,98367.44
2022-09-12T08:06:12.083Z,98476.13
2022-09-12T08:08:38.892Z,98540.09
2022-09-12T08:11:08.100Z,98647.28
2022-09-12T08:13:36.001Z,98691.81
2022-09-12T08:16:06.044Z,98765.78
2022-09-12T08:18:33.203Z,98877.25
2022-09-12T08:21:05.699Z,98849.59
2022-09-12T08:23:33.015Z,98854.13
2022-09-12T08:26:05.952Z,98858.31
2022-09-12T08:28:35.001Z,98889.47
2022-09-12T08:31:07.183Z,98966.84
2022-09-12T08:33:34.493Z,98912.25
2022-09-12T08:36:08.699Z,98972.84
2022-09-12T08:38:36.325Z,98981.31
2022-09-12T08:41:11.730Z,99015.97
2022-09-12T08:43:58.883Z,99005.91
2022-09-12T08:46:57.191Z,99015.03
2022-09-12T08:49:42.522Z,98929.81
2022-09-12T08:52:17.192Z,99001.91
2022-09-12T08:54:45.536Z,98961.94
2022-09-12T08:57:15.100Z,99005.44
2022-09-12T08:59:44.864Z,99024.81
2022-09-12T09:02:34.466Z,98995.16
2022-09-12T09:05:32.152Z,98989.41
2022-09-12T09:08:30.877Z,99018.91
2022-09-12T09:11:12.880Z,99017.06
2022-09-12T09:14:14.861Z,99037.81
2022-09-12T09:16:43.813Z,99070.25
2022-09-12T09:19:51.105Z,99080.47
2022-09-12T09:22:32.479Z,99082.22
2022-09-12T09:25:05.753Z,99094.50
2022-09-12T09:27:41.839Z,99087.16
2022-09-12T09:30:18.122Z,99114.03
2022-09-12T09:32:50.133Z,99091.56
2022-09-12T09:35:19.441Z,99102.22
2022-09-12T09:38:00.325Z,99088.25
2022-09-12T09:40:50.657Z,99119.38
2022-09-12T09:43:27.469Z,99111.00
2022-09-12T09:45:54.298Z,99119.13
2022-09-12T09:48:32.685Z,99114.84
2022-09-12T09:51:01.863Z,99121.66
2022-09-12T09:53:44.056Z,99116.16
2022-09-12T09:56:24.875Z,99107.06
2022-09-12T09:58:51.277Z,99116.81
2022-09-12T10:01:19.247Z,99098.19
2022-09-12T10:03:52.450Z,99108.53
2022-09-12T10:06:34.233Z,99107.44
2022-09-12T10:09:22.405Z,99117.00
2022-09-12T10:11:50.433Z,99085.38
2022-09-12T10:14:39.911Z,99112.84
2022-09-12T10:17:24.487Z,99097.44
2022-09-12T10:20:10.627Z,99105.91
2022-09-12T10:22:38.642Z,99087.75
2022-09-12T10:25:12.319Z,99109.94
2022-09-12T10:27:38.763Z,99093.16
2022-09-12T10:30:18.546Z,99108.66
2022-09-12T10:32:54.188Z,99098.22
2022-09-12T10:35:42.386Z,99112.09
2022-09-12T10:38:21.252Z,99113.56
2022-09-12T10:40:58.054Z,99106.50
2022-09-12T10:43:27.735Z,99115.81
2022-09-12T10:45:58.536Z,99095.84
2022-09-12T10:48:32.137Z,99098.84
2022-09-12T10:51:00.164Z,99106.69
2022-09-12T10:53:34.737Z,99079.00
2022-09-12T10:56:11.218Z,99105.19
2022-09-12T10:58:55.771Z,99101.31
2022-09-12T11:01:41.962Z,99104.41
2022-09-12T11:04:21.838Z,99100.16
2022-09-12T11:07:16.751Z,99091.97
2022-09-12T11:09:49.334Z,99105.91
2022-09-12T11:12:20.915Z,99089.75
2022-09-12T11:14:56.641Z,99089.97
2022-09-12T11:17:33.492Z,99082.63
2022-09-12T11:20:14.075Z,99085.97
2022-09-12T11:23:15.674Z,99089.31
2022-09-12T11:26:00.214Z,99086.09
2022-09-12T11:29:10.881Z,99069.38
2022-09-12T11:31:55.936Z,99045.81
2022-09-12T11:35:03.197Z,99084.47
2022-09-12T11:37:46.212Z,99087.31
2022-09-12T11:40:33.094Z,99071.25
2022-09-12T11:43:06.710Z,99069.03
2022-09-12T11:45:42.433Z,99070.38
2022-09-12T11:48:19.612Z,99070.78
2022-09-12T11:50:46.204Z,99068.63
2022-09-12T11:53:22.741Z,99056.72
2022-09-12T11:56:02.148Z,99058.41
2022-09-12T11:58:29.685Z,99069.84
2022-09-12T12:01:11.485Z,99056.47
2022-09-12T12:03:44.140Z,99058.81
2022-09-12T12:06:23.010Z,99060.94
2022-09-12T12:08:51.018Z,99046.75
2022-09-12T12:11:39.377Z,99054.06
2022-09-12T12:14:22.470Z,99022.66
2022-09-12T12:16:50.175Z,99052.22
2022-09-12T12:19:16.475Z,99046.38
2022-09-12T12:21:48.219Z,99048.03
2022-09-12T12:24:16.780Z,99047.25
2022-09-12T12:27:21.558Z,99046.13
2022-09-12T12:29:48.306Z,99027.69
2022-09-12T12:32:17.664Z,99045.38
2022-09-12T12:34:46.221Z,99035.66
2022-09-12T12:37:18.694Z,99035.56
2022-09-12T12:39:48.457Z,99026.88
2022-09-12T12:42:33.728Z,99022.34
2022-09-12T12:45:02.004Z,99005.63
2022-09-12T12:47:41.018Z,99014.72
2022-09-12T12:50:10.919Z,99008.31
2022-09-12T12:52:51.787Z,98994.56
2022-09-12T12:55:39.070Z,99005.22
2022-09-12T12:58:07.773Z,98992.28
2022-09-12T13:00:40.270Z,98996.91
2022-09-12T13:03:09.516Z,98987.53
2022-09-12T13:05:48.528Z,98986.13
2022-09-12T13:08:17.866Z,98990.63
2022-09-12T13:11:00.825Z,98996.25
2022-09-12T13:13:41.581Z,98979.06
2022-09-12T13:16:11.223Z,98993.59
2022-09-12T13:18:48.257Z,98989.78
2022-09-12T13:21:20.002Z,98973.97
2022-09-12T13:24:19.833Z,98973.53
2022-09-12T13:26:47.537Z,98981.84
2022-09-12T13:29:22.813Z,98980.44
2022-09-12T13:31:54.116Z,98966.91
2022-09-12T13:34:24.610Z,98965.69
2022-09-12T13:37:38.913Z,98975.59
2022-09-12T13:40:24.196Z,98967.47
2022-09-12T13:43:08.873Z,98939.34
2022-09-12T13:45:37.564Z,98972.16
2022-09-12T13:48:05.285Z,98948.75
2022-09-12T13:50:53.910Z,98960.69
2022-09-12T13:53:24.112Z,98937.88
2022-09-12T13:55:55.450Z,98960.88
2022-09-12T13:58:34.494Z,98944.16
2022-09-12T14:01:09.936Z,98961.69
2022-09-12T14:04:01.267Z,98957.81
2022-09-12T14:06:28.429Z,98951.47
2022-09-12T14:08:58.612Z,98958.88
2022-09-12T14:11:28.223Z,98949.59
2022-09-12T14:13:56.238Z,98951.13
2022-09-12T14:16:23.933Z,98942.75
2022-09-12T14:18:54.615Z,98942.75
2022-09-12T14:21:31.242Z,98926.25
2022-09-12T14:23:59.497Z,98898.81
2022-09-12T14:26:28.247Z,98925.59
2022-09-12T14:28:54.816Z,98933.25
2022-09-12T14:31:29.924Z,98927.50
2022-09-12T14:34:17.863Z,98925.31
2022-09-12T14:36:56.221Z,98908.66
2022-09-12T14:39:39.773Z,98911.44
2022-09-12T14:42:16.501Z,98926.13
2022-09-12T14:44:59.064Z,98918.88
2022-09-12T14:47:27.640Z,98896.84
2022-09-12T14:49:54.625Z,98920.28
2022-09-12T14:52:25.529Z,98908.88
2022-09-12T14:55:18.672Z,98907.19
2022-09-12T14:57:47.908Z,98915.31
2022-09-12T15:00:14.665Z,98913.22
2022-09-12T15:02:42.998Z,98901.06
2022-09-12T15:05:10.646Z,98905.19
2022-09-12T15:07:37.046Z,98904.66
2022-09-12T15:10:26.788Z,98899.56
2022-09-12T15:13:05.400Z,98904.69
2022-09-12T15:15:32.691Z,98884.94
2022-09-12T15:18:01.424Z,98894.13
2022-09-12T15:20:32.972Z,98897.81
2022-09-12T15:22:59.478Z,98873.53
2022-09-12T15:25:25.864Z,98863.25
2022-09-12T15:27:53.572Z,98865.25
2022-09-12T15:30:19.943Z,98846.25
2022-09-12T15:32:46.430Z,98867.75
2022-09-12T15:35:22.529Z,98855.31
2022-09-12T15:37:49.801Z,98849.16
2022-09-12T15:40:16.946Z,98854.03
2022-09-12T15:42:43.772Z,98868.13
2022-09-12T15:45:19.729Z,98872.25
2022-09-12T15:47:46.418Z,98872.31
2022-09-12T15:50:13.581Z,98865.78
2022-09-12T15:52:40.142Z,98860.53
2022-09-12T15:55:16.021Z,98865.97
2022-09-12T15:57:42.459Z,98866.69
2022-09-12T16:00:09.673Z,98838.94
2022-09-12T16:02:36.061Z,98855.34
2022-09-12T16:05:02.456Z,98860.03
2022-09-12T16:07:30.239Z,98849.34
2022-09-12T16:09:56.660Z,98854.59
2022-09-12T16:12:23.226Z,98833.81
2022-09-12T16:14:50.092Z,98838.44
2022-09-12T16:17:16.824Z,98846.25
2022-09-12T16:19:43.282Z,98841.31
2022-09-12T16:22:10.504Z,98838.44
2022-09-12T16:24:37.743Z,98836.88
2022-09-12T16:27:04.225Z,98821.91
2022-09-12T16:29:31.452Z,98818.94
2022-09-12T16:31:57.890Z,98809.78
2022-09-12T16:34:24.270Z,98781.44
2022-09-12T16:36:51.490Z,98796.47
2022-09-12T16:39:17.960Z,98800.09
2022-09-12T16:41:44.528Z,98799.28
2022-09-12T16:44:11.531Z,98786.88
2022-09-12T16:46:38.076Z,98790.63
2022-09-12T16:49:06.045Z,98768.06
2022-09-12T16:51:35.884Z,98765.66
2022-09-12T16:54:02.967Z,98764.91
2022-09-12T16:56:29.999Z,98740.91
2022-09-12T16:58:56.691Z,98732.56
2022-09-12T17:01:24.891Z,98718.50
2022-09-12T17:03:58.406Z,98697.56
2022-09-12T17:06:25.444Z,98678.63
2022-09-12T17:08:53.585Z,98663.78
2022-09-12T17:11:22.539Z,98669.56
2022-09-12T17:14:04.493Z,98663.38
2022-09-12T17:16:33.203Z,98658.44
2022-09-12T17:18:59.622Z,98638.59
2022-09-12T17:21:26.192Z,98638.22
2022-09-12T17:23:52.664Z,98611.38
2022-09-12T17:26:19.085Z,98602.53
2022-09-12T17:28:45.474Z,98592.22
2022-09-12T17:31:14.505Z,98569.25
2022-09-12T17:33:41.573Z,98547.59
2022-09-12T17:36:15.075Z,98537.84
2022-09-12T17:38:42.144Z,98520.13
2022-09-12T17:41:15.025Z,98518.88
2022-09-12T17:43:41.703Z,98494.44
2022-09-12T17:46:08.475Z,98482.47
2022-09-12T17:48:35.304Z,98461.84
2022-09-12T17:51:13.512Z,98451.06
2022-09-12T17:53:40.966Z,98448.53
2022-09-12T17:56:07.446Z,98431.66
2022-09-12T17:58:34.749Z,98444.41
2022-09-12T18:01:30.971Z,98418.78
2022-09-12T18:04:00.584Z,98419.56
2022-09-12T18:06:28.532Z,98412.72
2022-09-12T18:08:54.993Z,98398.44
2022-09-12T18:11:21.545Z,98379.88
2022-09-12T18:13:48.073Z,98394.09
2022-09-12T18:16:14.678Z,98383.00
2022-09-12T18:18:41.230Z,98374.09
2022-09-12T18:21:10.486Z,98361.31
2022-09-12T18:23:37.235Z,98367.69
2022-09-12T18:26:06.397Z,98369.53
2022-09-12T18:28:34.354Z,98372.78
2022-09-12T18:31:00.885Z,98357.06
2022-09-12T18:33:27.358Z,98336.41
2022-09-12T18:35:54.016Z,98336.78
2022-09-12T18:38:20.651Z,98335.59
2022-09-12T18:40:47.210Z,98336.16
2022-09-12T18:43:14.400Z,98335.34
2022-09-12T18:45:40.828Z,98338.56
2022-09-12T18:48:07.245Z,98348.72
2022-09-12T18:50:33.656Z,98357.97
2022-09-12T18:53:00.171Z,98356.25
2022-09-12T18:55:26.802Z,98356.25
2022-09-12T18:57:55.330Z,98329.19
2022-09-12T19:00:21.703Z,98337.06
2022-09-12T19:02:48.176Z,98336.16
2022-09-12T19:05:14.697Z,98301.09
2022-09-12T19:07:41.214Z,98303.72
2022-09-12T19:10:08.884Z,98236.09
2022-09-12T19:12:35.317Z,98266.81
2022-09-12T19:15:01.781Z,98250.69
2022-09-12T19:17:28.254Z,98234.44
2022-09-12T19:19:55.460Z,98250.31
2022-09-12T19:22:22.218Z,98239.66
2022-09-12T19:24:48.591Z,98233.22
2022-09-12T19:27:16.081Z,98229.69
2022-09-12T19:29:42.525Z,98199.91
2022-09-12T19:32:09.106Z,98185.81
2022-09-12T19:34:35.625Z,98174.63
2022-09-12T19:37:02.123Z,98176.41
2022-09-12T19:39:28.625Z,98155.84
2022-09-12T19:41:55.050Z,98163.97
2022-09-12T19:44:21.582Z,98169.94
2022-09-12T19:46:48.056Z,98156.09
2022-09-12T19:49:14.687Z,98143.91
2022-09-12T19:51:41.563Z,98115.75
2022-09-12T19:54:08.357Z,98110.06
2022-09-12T19:56:35.247Z,98107.19
2022-09-12T19:59:01.701Z,98087.09
2022-09-12T20:01:28.677Z,98090.75
2022-09-12T20:03:56.732Z,98080.56
2022-09-12T20:06:23.805Z,98067.69
2022-09-12T20:08:51.013Z,98060.31
2022-09-12T20:11:19.550Z,98080.47
2022-09-12T20:13:46.789Z,98069.41
2022-09-12T20:16:29.058Z,98065.41
2022-09-12T20:19:01.825Z,98047.38
2022-09-12T20:21:35.768Z,98031.59
2022-09-12T20:24:04.943Z,97999.69
2022-09-12T20:26:31.933Z,97970.50
2022-09-12T20:28:58.558Z,97966.34
2022-09-12T20:31:24.997Z,97958.09
2022-09-12T20:33:52.051Z,97937.72
2022-09-12T20:36:20.168Z,97917.16
2022-09-12T20:38:56.832Z,97922.03
2022-09-12T20:41:24.757Z,97924.31
2022-09-12T20:43:52.224Z,97910.63
2022-09-12T20:46:21.801Z,97920.06
2022-09-12T20:48:49.660Z,97916.44
2022-09-12T20:51:16.690Z,97876.13
2022-09-12T20:53:43.218Z,97887.41
2022-09-12T20:56:09.987Z,97887.66
2022-09-12T20:58:39.381Z,97890.94
2022-09-12T21:01:14.134Z,97896.25
2022-09-12T21:03:41.977Z,97890.94
2022-09-12T21:06:09.971Z,97872.44
2022-09-12T21:08:37.326Z,97891.88
2022-09-12T21:11:07.624Z,97880.50
2022-09-12T21:13:34.390Z,97869.41
2022-09-12T21:16:11.216Z,97827.09
2022-09-12T21:18:38.244Z,97815.13
2022-09-12T21:21:05.937Z,97788.66
2022-09-12T21:23:33.733Z,97775.56
2022-09-12T21:26:00.541Z,97765.94
2022-09-12T21:28:27.098Z,97739.25
2022-09-12T21:30:53.678Z,97755.78
2022-09-12T21:33:21.362Z,97751.16
2022-09-12T21:35:48.061Z,97747.66
2022-09-12T21:38:15.543Z,97750.66
2022-09-12T21:40:42.121Z,97750.34
2022-09-12T21:43:12.557Z,97743.69
2022-09-12T21:45:39.674Z,97727.59
2022-09-12T21:48:06.104Z,97717.81
2022-09-12T21:50:32.519Z,97733.78
2022-09-12T21:52:58.949Z,97733.53
2022-09-12T21:55:27.196Z,97730.41
2022-09-12T21:57:54.741Z,97727.59
2022-09-12T22:00:21.346Z,97739.47
2022-09-12T22:02:48.320Z,97737.03
2022-09-12T22:05:15.265Z,97735.75
2022-09-12T22:07:41.815Z,97728.91
2022-09-12T22:10:08.829Z,97723.47
2022-09-12T22:12:35.196Z,97734.16
2022-09-12T22:15:12.828Z,97747.91
2022-09-12T22:17:48.039Z,97736.94
2022-09-12T22:20:14.514Z,97744.78
2022-09-12T22:23:00.590Z,97736.94
2022-09-12T22:25:27.132Z,97727.47
2022-09-12T22:27:54.593Z,97682.47
2022-09-12T22:30:22.741Z,97710.31
2022-09-12T22:32:51.206Z,97705.97
2022-09-12T22:35:18.574Z,97712.91
2022-09-12T22:37:46.899Z,97712.03
2022-09-12T22:40:13.761Z,97708.66
2022-09-12T22:42:40.446Z,97686.53
2022-09-12T22:45:07.734Z,97686.22
2022-09-12T22:47:34.145Z,97673.06
2022-09-12T22:50:00.537Z,97670.59
2022-09-12T22:52:26.903Z,97679.91
2022-09-12T22:54:53.529Z,97690.69
2022-09-12T22:57:19.908Z,97677.38
2022-09-12T22:59:46.599Z,97671.78
2022-09-12T23:02:13.042Z,97670.88
2022-09-12T23:04:40.002Z,97671.25
2022-09-12T23:07:06.655Z,97672.41
2022-09-12T23:09:35.426Z,97670.66
2022-09-12T23:12:02.386Z,97650.91
2022-09-12T23:14:28.773Z,97663.19
2022-09-12T23:16:55.224Z,97654.56
2022-09-12T23:19:21.642Z,97649.69
2022-09-12T23:21:48.288Z,97641.53
2022-09-12T23:24:14.857Z,97646.75
2022-09-12T23:26:41.216Z,97646.84
2022-09-12T23:29:07.672Z,97645.34
2022-09-12T23:31:34.152Z,97651.28
2022-09-12T23:34:04.083Z,97625.47
2022-09-12T23:36:30.632Z,97626.09
2022-09-12T23:38:57.226Z,97646.84
2022-09-12T23:41:24.117Z,97644.19
2022-09-12T23:43:50.690Z,97639.28
2022-09-12T23:46:18.535Z,97664.53
2022-09-12T23:48:45.321Z,97654.03
2022-09-12T23:51:12.193Z,97661.97
2022-09-12T23:53:39.038Z,97663.47
2022-09-12T23:56:05.933Z,97649.41
2022-09-12T23:58:32.548Z,97666.13
